createdAt,value
2023-04-08T00:01:09.264Z,97695.22
2023-04-08T00:03:36.992Z,97700.06
2023-04-08T00:06:04.922Z,97695.28
2023-04-08T00:08:32.822Z,97695.75
2023-04-08T00:11:00.427Z,97698.91
2023-04-08T00:13:27.954Z,97691.94
2023-04-08T00:15:56.766Z,97687.97
2023-04-08T00:18:24.266Z,97684.00
2023-04-08T00:20:51.811Z,97684.81
2023-04-08T00:23:21.279Z,97689.75
2023-04-08T00:25:48.760Z,97697.97
2023-04-08T00:28:16.498Z,97694.34
2023-04-08T00:30:44.082Z,97693.50
2023-04-08T00:33:13.015Z,97685.72
2023-04-08T00:35:40.562Z,97687.22
2023-04-08T00:38:08.700Z,97687.22
2023-04-08T00:40:36.307Z,97691.81
2023-04-08T00:43:03.837Z,97701.09
2023-04-08T00:45:31.385Z,97701.28
2023-04-08T00:47:58.941Z,97695.63
2023-04-08T00:50:27.840Z,97698.88
2023-04-08T00:52:55.360Z,97692.94
2023-04-08T00:55:22.985Z,97704.38
2023-04-08T00:57:50.553Z,97696.25
2023-04-08T01:00:18.158Z,97699.56
2023-04-08T01:02:49.084Z,97692.63
2023-04-08T01:05:22.032Z,97706.69
2023-04-08T01:07:51.586Z,97701.25
2023-04-08T01:10:21.431Z,97699.56
2023-04-08T01:13:00.685Z,97705.53
2023-04-08T01:15:30.070Z,97706.00
2023-04-08T01:18:00.527Z,97697.06
2023-04-08T01:20:28.894Z,97707.34
2023-04-08T01:23:06.845Z,97695.41
2023-04-08T01:25:36.732Z,97700.69
2023-04-08T01:28:08.101Z,97704.31
2023-04-08T01:30:36.816Z,97703.31
2023-04-08T01:33:05.085Z,97705.56
2023-04-08T01:35:33.102Z,97691.50
2023-04-08T01:38:01.495Z,97696.16
2023-04-08T01:40:29.106Z,97692.69
2023-04-08T01:42:57.973Z,97697.97
2023-04-08T01:45:27.748Z,97701.47
2023-04-08T01:47:56.413Z,97695.34
2023-04-08T01:50:24.981Z,97693.19
2023-04-08T01:52:53.773Z,97693.84
2023-04-08T01:55:21.886Z,97696.13
2023-04-08T01:57:51.526Z,97687.84
2023-04-08T02:00:21.003Z,97700.75
2023-04-08T02:02:50.846Z,97693.97
2023-04-08T02:05:20.113Z,97693.66
2023-04-08T02:07:48.388Z,97699.56
2023-04-08T02:10:16.111Z,97696.28
2023-04-08T02:12:44.628Z,97699.09
2023-04-08T02:15:12.702Z,97698.59
2023-04-08T02:17:45.477Z,97700.91
2023-04-08T02:20:17.768Z,97696.22
2023-04-08T02:22:56.349Z,97701.31
2023-04-08T02:25:24.399Z,97702.69
2023-04-08T02:27:53.356Z,97701.22
2023-04-08T02:30:21.487Z,97706.19
2023-04-08T02:32:49.735Z,97702.72
2023-04-08T02:35:19.602Z,97707.84
2023-04-08T02:37:48.636Z,97697.44
2023-04-08T02:40:26.947Z,97697.75
2023-04-08T02:42:54.640Z,97698.78
2023-04-08T02:45:22.486Z,97694.63
2023-04-08T02:47:51.000Z,97702.22
2023-04-08T02:50:19.836Z,97702.06
2023-04-08T02:52:47.368Z,97700.59
2023-04-08T02:55:14.966Z,97708.53
2023-04-08T02:57:43.376Z,97701.44
2023-04-08T03:00:11.947Z,97700.41
2023-04-08T03:02:39.595Z,97699.28
2023-04-08T03:05:08.051Z,97703.06
2023-04-08T03:07:36.904Z,97703.41
2023-04-08T03:10:04.805Z,97700.41
2023-04-08T03:12:33.000Z,97702.75
2023-04-08T03:15:01.059Z,97704.16
2023-04-08T03:17:28.740Z,97705.09
2023-04-08T03:19:56.257Z,97699.88
2023-04-08T03:22:24.375Z,97702.03
2023-04-08T03:24:53.234Z,97703.19
2023-04-08T03:27:20.711Z,97697.53
2023-04-08T03:29:48.419Z,97706.09
2023-04-08T03:32:16.106Z,97704.34
2023-04-08T03:34:43.667Z,97708.84
2023-04-08T03:37:11.327Z,97707.09
2023-04-08T03:39:39.251Z,97704.13
2023-04-08T03:42:08.073Z,97694.78
2023-04-08T03:44:35.557Z,97705.22
2023-04-08T03:47:03.061Z,97708.19
2023-04-08T03:49:30.550Z,97707.66
2023-04-08T03:51:58.019Z,97708.34
2023-04-08T03:54:25.618Z,97715.31
2023-04-08T03:56:53.093Z,97716.31
2023-04-08T03:59:21.952Z,97716.94
2023-04-08T04:01:51.278Z,97715.13
2023-04-08T04:04:19.060Z,97719.81
2023-04-08T04:06:46.815Z,97722.91
2023-04-08T04:09:15.192Z,97732.34
2023-04-08T04:11:42.667Z,97726.91
2023-04-08T04:14:10.179Z,97724.78
2023-04-08T04:16:39.031Z,97735.88
2023-04-08T04:19:06.642Z,97730.72
2023-04-08T04:21:34.140Z,97733.47
2023-04-08T04:24:01.665Z,97733.31
2023-04-08T04:26:29.171Z,97743.22
2023-04-08T04:28:56.717Z,97750.81
2023-04-08T04:31:26.430Z,97751.16
2023-04-08T04:33:55.403Z,97745.72
2023-04-08T04:36:22.932Z,97747.06
2023-04-08T04:38:50.813Z,97740.66
2023-04-08T04:41:18.542Z,97743.91
2023-04-08T04:43:46.216Z,97745.75
2023-04-08T04:46:13.728Z,97746.28
2023-04-08T04:48:41.553Z,97755.44
2023-04-08T04:51:10.464Z,97758.06
2023-04-08T04:53:37.918Z,97754.06
2023-04-08T04:56:05.528Z,97762.16
2023-04-08T04:58:33.045Z,97770.09
2023-04-08T05:01:00.500Z,97763.13
2023-04-08T05:03:28.046Z,97771.06
2023-04-08T05:05:55.890Z,97763.00
2023-04-08T05:08:27.256Z,97759.50
2023-04-08T05:10:56.100Z,97759.66
2023-04-08T05:13:23.673Z,97780.38
2023-04-08T05:15:51.277Z,97775.09
2023-04-08T05:18:18.827Z,97777.41
2023-04-08T05:20:46.806Z,97782.59
2023-04-08T05:23:14.272Z,97774.94
2023-04-08T05:25:43.091Z,97776.56
2023-04-08T05:28:10.612Z,97773.22
2023-04-08T05:30:38.166Z,97779.09
2023-04-08T05:33:05.682Z,97779.50
2023-04-08T05:35:33.355Z,97785.75
2023-04-08T05:38:00.853Z,97789.25
2023-04-08T05:40:28.337Z,97795.38
2023-04-08T05:42:57.145Z,97787.44
2023-04-08T05:45:24.662Z,97789.88
2023-04-08T05:47:52.147Z,97781.47
2023-04-08T05:50:19.692Z,97786.59
2023-04-08T05:52:47.382Z,97792.22
2023-04-08T05:55:15.554Z,97793.94
2023-04-08T05:57:43.034Z,97797.91
2023-04-08T06:00:12.508Z,97792.47
2023-04-08T06:02:40.120Z,97791.63
2023-04-08T06:05:08.213Z,97797.53
2023-04-08T06:07:35.858Z,97806.44
2023-04-08T06:10:03.511Z,97812.91
2023-04-08T06:12:31.189Z,97812.47
2023-04-08T06:14:58.756Z,97812.63
2023-04-08T06:17:27.634Z,97806.72
2023-04-08T06:19:55.215Z,97813.00
2023-04-08T06:22:22.722Z,97811.63
2023-04-08T06:24:50.218Z,97810.69
2023-04-08T06:27:18.264Z,97815.31
2023-04-08T06:29:45.749Z,97824.91
2023-04-08T06:32:13.252Z,97819.81
2023-04-08T06:34:42.220Z,97818.19
2023-04-08T06:37:09.826Z,97822.06
2023-04-08T06:39:37.295Z,97827.53
2023-04-08T06:42:04.834Z,97823.88
2023-04-08T06:44:45.177Z,97831.56
2023-04-08T06:47:12.650Z,97835.47
2023-04-08T06:49:40.109Z,97833.66
2023-04-08T06:52:08.901Z,97838.81
2023-04-08T06:54:36.417Z,97837.28
2023-04-08T06:57:04.186Z,97834.19
2023-04-08T06:59:31.725Z,97839.16
2023-04-08T07:01:59.316Z,97835.34
2023-04-08T07:04:27.004Z,97840.13
2023-04-08T07:06:54.839Z,97831.13
2023-04-08T07:09:23.677Z,97836.66
2023-04-08T07:11:51.287Z,97831.84
2023-04-08T07:14:19.597Z,97832.09
2023-04-08T07:16:47.171Z,97834.31
2023-04-08T07:19:14.695Z,97841.78
2023-04-08T07:21:42.390Z,97848.81
2023-04-08T07:24:09.892Z,97846.34
2023-04-08T07:26:39.289Z,97849.16
2023-04-08T07:29:06.783Z,97853.84
2023-04-08T07:31:34.370Z,97854.50
2023-04-08T07:34:01.906Z,97850.72
2023-04-08T07:36:29.423Z,97852.72
2023-04-08T07:38:56.909Z,97850.91
2023-04-08T07:41:24.413Z,97857.41
2023-04-08T07:43:53.204Z,97857.25
2023-04-08T07:46:21.160Z,97859.28
2023-04-08T07:48:49.053Z,97865.59
2023-04-08T07:51:16.713Z,97874.63
2023-04-08T07:53:47.928Z,97872.50
2023-04-08T07:56:18.202Z,97876.50
2023-04-08T07:58:45.921Z,97885.13
2023-04-08T08:01:20.097Z,97885.91
2023-04-08T08:03:48.511Z,97886.63
2023-04-08T08:06:16.432Z,97889.72
2023-04-08T08:08:44.107Z,97885.25
2023-04-08T08:11:11.763Z,97892.69
2023-04-08T08:13:39.264Z,97892.41
2023-04-08T08:16:09.191Z,97893.16
2023-04-08T08:18:40.148Z,97894.06
2023-04-08T08:21:08.548Z,97899.56
2023-04-08T08:23:36.191Z,97899.66
2023-04-08T08:26:04.944Z,97894.63
2023-04-08T08:28:32.454Z,97905.09
2023-04-08T08:31:00.359Z,97904.31
2023-04-08T08:33:27.869Z,97912.94
2023-04-08T08:35:58.144Z,97920.09
2023-04-08T08:38:26.094Z,97922.81
2023-04-08T08:40:56.367Z,97924.25
2023-04-08T08:43:24.054Z,97911.81
2023-04-08T08:45:51.605Z,97910.25
2023-04-08T08:48:19.131Z,97922.41
2023-04-08T08:50:46.720Z,97925.28
2023-04-08T08:53:16.151Z,97922.03
2023-04-08T08:56:13.660Z,97918.38
2023-04-08T08:58:31.657Z,97920.06
2023-04-08T09:01:00.974Z,97928.34
2023-04-08T09:03:29.697Z,97928.34
2023-04-08T09:05:58.846Z,97925.88
2023-04-08T09:08:31.888Z,97934.72
2023-04-08T09:11:12.459Z,97930.53
2023-04-08T09:13:40.311Z,97935.00
2023-04-08T09:16:09.574Z,97931.91
2023-04-08T09:18:37.833Z,97938.09
2023-04-08T09:21:06.428Z,97931.38
2023-04-08T09:23:43.020Z,97935.22
2023-04-08T09:26:11.887Z,97936.53
2023-04-08T09:28:40.695Z,97936.81
2023-04-08T09:31:21.827Z,97945.50
2023-04-08T09:33:50.390Z,97947.00
2023-04-08T09:36:18.378Z,97952.06
2023-04-08T09:38:49.219Z,97953.13
2023-04-08T09:41:17.891Z,97957.31
2023-04-08T09:43:49.589Z,97966.28
2023-04-08T09:46:19.257Z,97960.88
2023-04-08T09:48:52.300Z,97966.16
2023-04-08T09:51:22.508Z,97963.88
2023-04-08T09:53:57.340Z,97964.09
2023-04-08T09:56:25.892Z,97972.41
2023-04-08T09:58:56.881Z,97970.44
2023-04-08T10:01:29.836Z,97975.50
2023-04-08T10:03:58.257Z,97975.34
2023-04-08T10:06:29.507Z,97973.44
2023-04-08T10:08:59.100Z,97973.69
2023-04-08T10:11:26.600Z,97974.56
2023-04-08T10:13:54.193Z,97982.72
2023-04-08T10:16:24.412Z,97979.28
2023-04-08T10:18:55.619Z,97973.13
2023-04-08T10:21:33.135Z,97977.69
2023-04-08T10:24:06.965Z,97982.28
2023-04-08T10:26:36.710Z,97972.00
2023-04-08T10:29:32.638Z,97976.84
2023-04-08T10:32:01.260Z,97967.19
2023-04-08T10:34:28.982Z,97975.28
2023-04-08T10:36:58.969Z,97975.41
2023-04-08T10:39:28.362Z,97980.22
2023-04-08T10:41:56.338Z,97978.63
2023-04-08T10:44:26.252Z,97976.47
2023-04-08T10:46:54.703Z,97982.00
2023-04-08T10:49:22.937Z,97974.81
2023-04-08T10:51:50.516Z,97976.50
2023-04-08T10:54:19.269Z,97983.00
2023-04-08T10:56:49.509Z,97977.06
2023-04-08T10:59:20.068Z,97988.47
2023-04-08T11:01:48.076Z,97976.22
2023-04-08T11:04:17.991Z,97978.28
2023-04-08T11:06:46.875Z,97976.94
2023-04-08T11:09:15.324Z,97980.47
2023-04-08T11:11:43.414Z,97976.88
2023-04-08T11:14:12.500Z,97981.69
2023-04-08T11:16:40.697Z,97986.84
2023-04-08T11:19:08.937Z,97976.22
2023-04-08T11:21:37.626Z,97968.09
2023-04-08T11:24:11.900Z,97975.69
2023-04-08T11:26:39.662Z,97961.97
2023-04-08T11:29:08.903Z,97972.00
2023-04-08T11:31:38.181Z,97980.00
2023-04-08T11:34:06.261Z,97967.22
2023-04-08T11:36:35.284Z,97964.41
2023-04-08T11:39:08.001Z,97966.38
2023-04-08T11:41:40.535Z,97958.75
2023-04-08T11:44:08.752Z,97972.38
2023-04-08T11:46:38.106Z,97976.03
2023-04-08T11:49:07.696Z,97967.06
2023-04-08T11:51:36.207Z,97968.53
2023-04-08T11:54:06.168Z,97961.75
2023-04-08T11:56:45.633Z,97970.53
2023-04-08T11:59:13.126Z,97967.72
2023-04-08T12:01:41.990Z,97965.22
2023-04-08T12:04:10.680Z,97974.69
2023-04-08T12:06:38.375Z,97972.19
2023-04-08T12:09:06.404Z,97977.84
2023-04-08T12:11:34.787Z,97980.19
2023-04-08T12:14:02.286Z,97982.16
2023-04-08T12:16:30.054Z,97984.66
2023-04-08T12:18:58.905Z,97986.50
2023-04-08T12:21:27.850Z,98008.88
2023-04-08T12:23:55.347Z,97998.09
2023-04-08T12:26:22.853Z,97997.78
2023-04-08T12:28:50.422Z,98005.59
2023-04-08T12:31:17.931Z,98002.94
2023-04-08T12:33:45.481Z,98006.41
2023-04-08T12:36:14.291Z,98004.06
2023-04-08T12:38:42.016Z,98007.06
2023-04-08T12:41:09.583Z,97997.94
2023-04-08T12:43:37.661Z,98002.78
2023-04-08T12:46:05.210Z,98001.94
2023-04-08T12:48:33.172Z,98010.06
2023-04-08T12:51:00.836Z,98006.59
2023-04-08T12:53:29.672Z,98004.41
2023-04-08T12:55:57.587Z,98007.75
2023-04-08T12:58:25.634Z,98002.91
2023-04-08T13:00:53.331Z,98000.94
2023-04-08T13:03:20.887Z,98007.56
2023-04-08T13:05:48.551Z,98010.56
2023-04-08T13:08:16.722Z,98004.72
2023-04-08T13:10:45.607Z,98001.75
2023-04-08T13:13:14.224Z,98006.25
2023-04-08T13:15:41.976Z,98012.22
2023-04-08T13:18:09.515Z,98005.75
2023-04-08T13:20:37.097Z,98006.06
2023-04-08T13:23:04.702Z,98014.88
2023-04-08T13:25:32.229Z,98008.72
2023-04-08T13:28:01.133Z,98014.84
2023-04-08T13:30:28.631Z,98016.19
2023-04-08T13:32:56.177Z,98011.06
2023-04-08T13:35:23.800Z,98015.72
2023-04-08T13:37:51.314Z,98019.50
2023-04-08T13:40:18.800Z,98014.88
2023-04-08T13:42:46.664Z,98013.03
2023-04-08T13:45:15.654Z,98010.88
2023-04-08T13:47:43.250Z,98011.56
2023-04-08T13:50:11.216Z,98011.72
2023-04-08T13:52:38.701Z,98012.22
2023-04-08T13:55:07.258Z,98011.56
2023-04-08T13:57:34.824Z,98005.75
2023-04-08T14:00:02.330Z,98009.56
2023-04-08T14:02:32.033Z,98007.25
2023-04-08T14:04:59.583Z,98020.69
2023-04-08T14:07:27.114Z,98008.72
2023-04-08T14:09:54.905Z,98007.56
2023-04-08T14:12:22.478Z,98011.22
2023-04-08T14:14:49.973Z,98012.22
2023-04-08T14:17:17.555Z,98018.19
2023-04-08T14:19:46.408Z,98022.16
2023-04-08T14:22:14.971Z,98010.84
2023-04-08T14:24:42.536Z,98016.50
2023-04-08T14:27:10.265Z,98014.66
2023-04-08T14:29:37.823Z,98019.34
2023-04-08T14:32:05.657Z,98014.31
2023-04-08T14:34:33.191Z,98019.66
2023-04-08T14:37:02.022Z,98025.63
2023-04-08T14:39:29.535Z,98029.63
2023-04-08T14:41:57.371Z,98022.81
2023-04-08T14:44:24.911Z,98019.97
2023-04-08T14:46:52.570Z,98016.16
2023-04-08T14:49:23.316Z,98035.28
2023-04-08T14:51:52.741Z,98022.81
2023-04-08T14:54:22.254Z,98025.81
2023-04-08T14:56:49.750Z,98031.13
2023-04-08T14:59:17.279Z,98025.47
2023-04-08T15:01:45.068Z,98023.16
2023-04-08T15:04:12.710Z,98029.94
2023-04-08T15:06:40.463Z,98035.78
2023-04-08T15:09:08.060Z,98032.13
2023-04-08T15:11:37.065Z,98031.16
2023-04-08T15:14:04.580Z,98036.63
2023-04-08T15:16:33.004Z,98039.59
2023-04-08T15:19:00.694Z,98033.94
2023-04-08T15:21:28.219Z,98044.25
2023-04-08T15:23:55.751Z,98030.97
2023-04-08T15:26:24.406Z,98028.97
2023-04-08T15:28:55.163Z,98033.28
2023-04-08T15:31:22.776Z,98045.41
2023-04-08T15:33:50.566Z,98041.78
2023-04-08T15:36:19.827Z,98039.75
2023-04-08T15:38:47.911Z,98041.09
2023-04-08T15:41:19.190Z,98045.56
2023-04-08T15:43:47.032Z,98044.91
2023-04-08T15:46:19.607Z,98056.72
2023-04-08T15:48:47.359Z,98054.06
2023-04-08T15:51:14.879Z,98055.69
2023-04-08T15:53:42.666Z,98055.53
2023-04-08T15:56:13.475Z,98048.91
2023-04-08T15:58:41.099Z,98059.03
2023-04-08T16:01:08.926Z,98058.38
2023-04-08T16:03:38.032Z,98057.69
2023-04-08T16:06:08.655Z,98069.69
2023-04-08T16:08:37.298Z,98068.03
2023-04-08T16:11:06.222Z,98075.66
2023-04-08T16:13:34.153Z,98064.22
2023-04-08T16:16:02.660Z,98069.84
2023-04-08T16:18:30.420Z,98079.31
2023-04-08T16:20:59.276Z,98076.16
2023-04-08T16:23:27.086Z,98076.84
2023-04-08T16:25:54.578Z,98077.66
2023-04-08T16:28:22.072Z,98085.97
2023-04-08T16:30:49.580Z,98082.63
2023-04-08T16:33:17.123Z,98084.78
2023-04-08T16:35:44.788Z,98086.44
2023-04-08T16:38:14.847Z,98095.91
2023-04-08T16:40:42.524Z,98094.59
2023-04-08T16:43:10.088Z,98092.75
2023-04-08T16:45:37.879Z,98098.25
2023-04-08T16:48:05.478Z,98099.41
2023-04-08T16:50:33.018Z,98099.41
2023-04-08T16:53:00.606Z,98105.56
2023-04-08T16:55:29.437Z,98101.06
2023-04-08T16:57:57.804Z,98109.72
2023-04-08T17:00:25.356Z,98115.84
2023-04-08T17:02:55.507Z,98112.69
2023-04-08T17:05:23.248Z,98123.78
2023-04-08T17:07:50.792Z,98117.81
2023-04-08T17:10:18.887Z,98117.81
2023-04-08T17:12:47.676Z,98123.47
2023-04-08T17:15:15.387Z,98121.50
2023-04-08T17:17:42.981Z,98129.31
2023-04-08T17:20:11.886Z,98129.63
2023-04-08T17:22:39.401Z,98133.13
2023-04-08T17:25:07.875Z,98141.25
2023-04-08T17:27:35.383Z,98137.59
2023-04-08T17:30:04.824Z,98135.94
2023-04-08T17:32:32.320Z,98137.91
2023-04-08T17:34:59.893Z,98141.72
2023-04-08T17:37:27.499Z,98151.53
2023-04-08T17:39:55.015Z,98144.56
2023-04-08T17:42:23.652Z,98153.38
2023-04-08T17:44:51.139Z,98148.88
2023-04-08T17:47:21.059Z,98151.53
2023-04-08T17:49:48.604Z,98154.34
2023-04-08T17:52:16.280Z,98157.31
2023-04-08T17:54:43.963Z,98165.97
2023-04-08T17:57:11.472Z,98162.47
2023-04-08T17:59:38.981Z,98159.66
2023-04-08T18:02:06.555Z,98165.59
2023-04-08T18:04:35.392Z,98164.78
2023-04-08T18:07:04.420Z,98173.72
2023-04-08T18:09:32.040Z,98177.41
2023-04-08T18:11:59.556Z,98170.25
2023-04-08T18:14:29.135Z,98179.22
2023-04-08T18:16:56.765Z,98185.69
2023-04-08T18:19:26.090Z,98182.34
2023-04-08T18:21:55.291Z,98186.53
2023-04-08T18:24:22.850Z,98187.81
2023-04-08T18:27:01.461Z,98195.13
2023-04-08T18:29:31.297Z,98204.53
2023-04-08T18:32:03.201Z,98208.69
2023-04-08T18:34:31.953Z,98208.69
2023-04-08T18:37:01.049Z,98206.84
2023-04-08T18:39:28.536Z,98214.81
2023-04-08T18:41:56.597Z,98214.66
2023-04-08T18:44:24.318Z,98224.78
2023-04-08T18:46:51.821Z,98219.41
2023-04-08T18:49:19.310Z,98223.59
2023-04-08T18:51:55.520Z,98230.72
2023-04-08T18:54:31.501Z,98228.38
2023-04-08T18:56:59.128Z,98227.53
2023-04-08T18:59:28.317Z,98229.22
2023-04-08T19:01:56.315Z,98225.56
2023-04-08T19:04:23.893Z,98229.06
2023-04-08T19:06:51.434Z,98233.53
2023-04-08T19:09:19.195Z,98238.34
2023-04-08T19:11:48.566Z,98235.00
2023-04-08T19:14:16.054Z,98244.13
2023-04-08T19:16:43.696Z,98246.63
2023-04-08T19:19:11.158Z,98239.09
2023-04-08T19:21:38.723Z,98235.59
2023-04-08T19:24:06.619Z,98239.72
2023-04-08T19:26:34.675Z,98242.03
2023-04-08T19:29:03.621Z,98246.19
2023-04-08T19:31:31.372Z,98241.38
2023-04-08T19:33:59.008Z,98239.56
2023-04-08T19:36:27.464Z,98244.03
2023-04-08T19:38:54.928Z,98250.47
2023-04-08T19:41:23.109Z,98252.53
2023-04-08T19:43:50.761Z,98247.09
2023-04-08T19:46:19.740Z,98250.28
2023-04-08T19:48:47.396Z,98244.97
2023-04-08T19:51:16.945Z,98249.59
2023-04-08T19:53:44.598Z,98252.53
2023-04-08T19:56:12.037Z,98245.66
2023-04-08T19:58:39.521Z,98252.16
2023-04-08T20:01:07.333Z,98246.84
2023-04-08T20:03:36.399Z,98241.56
2023-04-08T20:06:03.961Z,98240.66
2023-04-08T20:08:31.438Z,98247.34
2023-04-08T20:10:59.381Z,98248.19
2023-04-08T20:13:26.855Z,98248.19
2023-04-08T20:15:54.410Z,98255.31
2023-04-08T20:18:22.040Z,98251.44
2023-04-08T20:20:50.835Z,98256.91
2023-04-08T20:23:18.366Z,98258.34
2023-04-08T20:25:45.862Z,98257.16
2023-04-08T20:28:13.359Z,98255.88
2023-04-08T20:30:40.856Z,98251.34
2023-04-08T20:33:08.373Z,98256.78
2023-04-08T20:35:35.911Z,98255.94
2023-04-08T20:38:05.190Z,98248.91
2023-04-08T20:40:32.878Z,98251.78
2023-04-08T20:43:00.569Z,98248.16
2023-04-08T20:45:28.265Z,98243.97
2023-04-08T20:47:55.893Z,98246.19
2023-04-08T20:50:23.854Z,98248.66
2023-04-08T20:52:51.641Z,98248.38
2023-04-08T20:55:20.671Z,98240.72
2023-04-08T20:57:48.361Z,98240.97
2023-04-08T21:00:16.947Z,98247.53
2023-04-08T21:02:44.883Z,98243.50
2023-04-08T21:05:12.565Z,98250.19
2023-04-08T21:07:44.238Z,98250.63
2023-04-08T21:10:12.362Z,98254.13
2023-04-08T21:12:41.207Z,98245.09
2023-04-08T21:15:09.757Z,98245.19
2023-04-08T21:17:37.343Z,98241.25
2023-04-08T21:20:06.532Z,98245.56
2023-04-08T21:22:34.073Z,98242.38
2023-04-08T21:25:01.561Z,98245.47
2023-04-08T21:27:29.277Z,98249.28
2023-04-08T21:29:58.112Z,98250.41
2023-04-08T21:32:26.491Z,98244.44
2023-04-08T21:34:55.048Z,98250.78
2023-04-08T21:37:23.066Z,98259.91
2023-04-08T21:39:51.516Z,98255.38
2023-04-08T21:42:22.527Z,98257.63
2023-04-08T21:44:50.041Z,98254.84
2023-04-08T21:47:18.978Z,98259.16
2023-04-08T21:49:46.472Z,98256.34
2023-04-08T21:52:13.973Z,98261.94
2023-04-08T21:54:41.547Z,98267.69
2023-04-08T21:57:09.000Z,98267.13
2023-04-08T21:59:36.846Z,98267.31
2023-04-08T22:02:04.636Z,98264.38
2023-04-08T22:04:33.528Z,98269.34
2023-04-08T22:07:01.548Z,98265.06
2023-04-08T22:09:29.066Z,98263.81
2023-04-08T22:11:57.197Z,98269.09
2023-04-08T22:14:24.713Z,98263.78
2023-04-08T22:16:52.288Z,98268.00
2023-04-08T22:19:19.996Z,98266.88
2023-04-08T22:21:50.164Z,98268.06
2023-04-08T22:24:17.943Z,98272.69
2023-04-08T22:26:45.422Z,98267.94
2023-04-08T22:29:13.002Z,98268.97
2023-04-08T22:31:40.705Z,98259.97
2023-04-08T22:34:08.205Z,98263.34
2023-04-08T22:36:35.748Z,98257.25
2023-04-08T22:39:04.819Z,98267.38
2023-04-08T22:41:32.296Z,98274.38
2023-04-08T22:43:59.794Z,98271.03
2023-04-08T22:46:27.281Z,98271.34
2023-04-08T22:48:54.931Z,98268.97
2023-04-08T22:51:22.447Z,98264.25
2023-04-08T22:53:49.960Z,98264.50
2023-04-08T22:56:18.789Z,98266.47
2023-04-08T22:58:46.307Z,98271.91
2023-04-08T23:01:14.995Z,98269.53
2023-04-08T23:03:42.625Z,98269.41
2023-04-08T23:06:10.152Z,98273.53
2023-04-08T23:08:38.630Z,98270.78
2023-04-08T23:11:06.414Z,98269.66
2023-04-08T23:13:35.383Z,98269.66
2023-04-08T23:16:03.023Z,98271.03
2023-04-08T23:18:30.746Z,98271.47
2023-04-08T23:20:58.596Z,98274.94
2023-04-08T23:23:26.454Z,98269.53
2023-04-08T23:25:55.695Z,98267.97
2023-04-08T23:28:23.548Z,98277.44
2023-04-08T23:30:52.383Z,98267.13
2023-04-08T23:33:19.938Z,98271.44
2023-04-08T23:35:47.464Z,98270.00
2023-04-08T23:38:15.014Z,98265.72
2023-04-08T23:40:42.488Z,98263.63
2023-04-08T23:43:09.986Z,98266.84
2023-04-08T23:45:37.463Z,98261.25
2023-04-08T23:48:09.960Z,98258.78
2023-04-08T23:50:37.729Z,98258.22
2023-04-08T23:53:05.335Z,98259.81
2023-04-08T23:55:32.842Z,98263.28
2023-04-08T23:58:00.327Z,98274.03
